Terminal Aerodrome Forecast
Issued by NWS

Home | Current Version | Previous Version | Text Only | Print | Product List | Glossary On
Versions: 1 2 3 4 5 6 7 8 9 10 11 12 13 14 15 16 17 18 19 20 21 22 23 24
816
FTUS41 KGYX 270854 AAA
TAFHIE
TAF AMD
KHIE 270854Z 2709/2806 VRB03KT P6SM -FZRA OVC025
     FM271300 12009G15KT 4SM -RA BR OVC035
     FM271800 12005KT 2SM -RA BR OVC015
     FM280000 VRB03KT 4SM -SHRA BR OVC020=

USA.gov is the U.S. government's official web portal to all federal, state and local government web resources and services.